sensor_id;sensor_type;location;lat;lon;timestamp;pressure;altitude;pressure_sealevel;temperature;humidity
31088;BME280;17745;55.914;37.554;2023-06-22T00:33:32;99392.91;;;16.61;41.75
31088;BME280;17745;55.914;37.554;2023-06-22T00:36:48;99388.12;;;16.57;41.68
31088;BME280;17745;55.914;37.554;2023-06-22T00:39:53;99391.09;;;16.56;41.74
31088;BME280;17745;55.914;37.554;2023-06-22T00:42:55;99390.06;;;16.52;41.62
31088;BME280;17745;55.914;37.554;2023-06-22T00:45:57;99392.75;;;16.52;41.80
31088;BME280;17745;55.914;37.554;2023-06-22T00:52:17;99387.28;;;16.62;42.00
31088;BME280;17745;55.914;37.554;2023-06-22T00:55:19;99384.59;;;16.62;41.94
31088;BME280;17745;55.914;37.554;2023-06-22T00:58:36;99383.78;;;16.62;42.08
31088;BME280;17745;55.914;37.554;2023-06-22T01:01:11;99380.03;;;16.63;41.88
31088;BME280;17745;55.914;37.554;2023-06-22T01:04:00;99380.84;;;16.63;41.99
31088;BME280;17745;55.914;37.554;2023-06-22T01:06:49;99396.59;;;16.65;42.13
31088;BME280;17745;55.914;37.554;2023-06-22T01:09:54;99381.06;;;16.67;42.27
31088;BME280;17745;55.914;37.554;2023-06-22T01:12:51;99388.19;;;16.71;42.25
31088;BME280;17745;55.914;37.554;2023-06-22T01:15:45;99394.50;;;16.81;42.11
31088;BME280;17745;55.914;37.554;2023-06-22T01:18:44;99386.41;;;16.86;42.05
31088;BME280;17745;55.914;37.554;2023-06-22T01:21:32;99386.81;;;16.93;41.97
31088;BME280;17745;55.914;37.554;2023-06-22T01:24:30;99397.19;;;17.00;41.94
31088;BME280;17745;55.914;37.554;2023-06-22T01:27:28;99401.69;;;17.05;41.89
31088;BME280;17745;55.914;37.554;2023-06-22T01:30:17;99393.56;;;17.10;41.93
31088;BME280;17745;55.914;37.554;2023-06-22T01:33:15;99390.03;;;17.14;41.92
31088;BME280;17745;55.914;37.554;2023-06-22T01:36:18;99394.19;;;17.21;41.81
31088;BME280;17745;55.914;37.554;2023-06-22T01:39:54;99405.34;;;17.28;41.75
31088;BME280;17745;55.914;37.554;2023-06-22T01:43:35;99399.81;;;17.38;41.65
31088;BME280;17745;55.914;37.554;2023-06-22T01:50:22;99397.75;;;17.49;41.58
31088;BME280;17745;55.914;37.554;2023-06-22T01:52:59;99400.28;;;17.60;41.44
31088;BME280;17745;55.914;37.554;2023-06-22T01:55:34;99399.37;;;17.64;41.37
31088;BME280;17745;55.914;37.554;2023-06-22T01:58:31;99388.78;;;17.73;41.35
31088;BME280;17745;55.914;37.554;2023-06-22T02:01:23;99390.69;;;17.86;41.25
31088;BME280;17745;55.914;37.554;2023-06-22T02:04:32;99392.59;;;18.00;41.08
31088;BME280;17745;55.914;37.554;2023-06-22T02:07:51;99382.19;;;18.12;40.90
31088;BME280;17745;55.914;37.554;2023-06-22T02:10:54;99382.78;;;18.23;40.88
31088;BME280;17745;55.914;37.554;2023-06-22T02:13:49;99373.25;;;18.31;40.76
31088;BME280;17745;55.914;37.554;2023-06-22T02:16:39;99374.13;;;18.40;40.67
31088;BME280;17745;55.914;37.554;2023-06-22T02:19:47;99367.84;;;18.45;40.69
31088;BME280;17745;55.914;37.554;2023-06-22T02:34:39;99359.97;;;18.63;40.44
31088;BME280;17745;55.914;37.554;2023-06-22T02:38:32;99359.56;;;18.69;40.37
31088;BME280;17745;55.914;37.554;2023-06-22T02:42:03;99347.44;;;18.72;40.29
31088;BME280;17745;55.914;37.554;2023-06-22T02:45:19;99346.63;;;18.71;40.32
31088;BME280;17745;55.914;37.554;2023-06-22T02:48:44;99340.94;;;18.87;40.24
31088;BME280;17745;55.914;37.554;2023-06-22T02:52:15;99344.06;;;19.03;40.19
31088;BME280;17745;55.914;37.554;2023-06-22T02:55:15;99347.47;;;19.18;39.90
31088;BME280;17745;55.914;37.554;2023-06-22T02:58:37;99336.31;;;19.24;39.84
31088;BME280;17745;55.914;37.554;2023-06-22T03:13:24;99329.41;;;20.04;39.03
31088;BME280;17745;55.914;37.554;2023-06-22T03:16:37;99328.00;;;20.24;39.07
31088;BME280;17745;55.914;37.554;2023-06-22T03:20:22;99319.94;;;20.42;38.87
31088;BME280;17745;55.914;37.554;2023-06-22T03:23:43;99315.34;;;20.60;38.78
31088;BME280;17745;55.914;37.554;2023-06-22T03:26:54;99313.31;;;20.66;38.71
31088;BME280;17745;55.914;37.554;2023-06-22T03:30:10;99309.66;;;20.79;38.51
31088;BME280;17745;55.914;37.554;2023-06-22T03:33:05;99310.44;;;20.97;38.43
31088;BME280;17745;55.914;37.554;2023-06-22T03:35:59;99307.75;;;21.06;38.07
31088;BME280;17745;55.914;37.554;2023-06-22T03:38:45;99309.94;;;21.22;37.83
31088;BME280;17745;55.914;37.554;2023-06-22T03:41:17;99311.00;;;21.38;37.36
31088;BME280;17745;55.914;37.554;2023-06-22T03:43:50;99315.97;;;21.57;36.97
31088;BME280;17745;55.914;37.554;2023-06-22T03:46:33;99310.69;;;21.79;36.37
31088;BME280;17745;55.914;37.554;2023-06-22T03:49:04;99296.31;;;21.96;35.84
31088;BME280;17745;55.914;37.554;2023-06-22T03:51:51;99308.78;;;22.09;35.86
31088;BME280;17745;55.914;37.554;2023-06-22T03:55:47;99300.94;;;22.17;35.24
31088;BME280;17745;55.914;37.554;2023-06-22T05:29:44;99285.00;;;23.71;32.04
31088;BME280;17745;55.914;37.554;2023-06-22T05:32:17;99287.13;;;23.65;32.26
31088;BME280;17745;55.914;37.554;2023-06-22T05:35:00;99284.53;;;23.56;32.33
31088;BME280;17745;55.914;37.554;2023-06-22T05:38:00;99281.97;;;23.60;32.36
31088;BME280;17745;55.914;37.554;2023-06-22T05:40:59;99280.38;;;23.59;32.43
31088;BME280;17745;55.914;37.554;2023-06-22T05:43:59;99282.41;;;23.62;32.51
31088;BME280;17745;55.914;37.554;2023-06-22T05:46:57;99288.81;;;23.58;32.49
31088;BME280;17745;55.914;37.554;2023-06-22T05:50:08;99282.53;;;23.53;32.48
31088;BME280;17745;55.914;37.554;2023-06-22T05:52:59;99286.13;;;23.58;32.55
31088;BME280;17745;55.914;37.554;2023-06-22T05:55:41;99290.63;;;23.53;32.71
31088;BME280;17745;55.914;37.554;2023-06-22T05:58:27;99285.34;;;23.45;32.80
31088;BME280;17745;55.914;37.554;2023-06-22T06:01:11;99295.34;;;23.44;32.88
31088;BME280;17745;55.914;37.554;2023-06-22T06:04:05;99291.06;;;23.55;32.94
31088;BME280;17745;55.914;37.554;2023-06-22T06:06:56;99297.03;;;23.74;32.85
31088;BME280;17745;55.914;37.554;2023-06-22T06:09:59;99284.06;;;23.79;32.78
31088;BME280;17745;55.914;37.554;2023-06-22T06:12:55;99290.94;;;23.89;32.72
31088;BME280;17745;55.914;37.554;2023-06-22T06:15:59;99285.41;;;24.10;32.41
31088;BME280;17745;55.914;37.554;2023-06-22T06:19:12;99287.19;;;24.19;32.38
31088;BME280;17745;55.914;37.554;2023-06-22T06:21:49;99271.88;;;24.51;32.28
31088;BME280;17745;55.914;37.554;2023-06-22T06:24:21;99282.22;;;24.62;32.14
31088;BME280;17745;55.914;37.554;2023-06-22T06:27:16;99287.53;;;24.74;31.91
31088;BME280;17745;55.914;37.554;2023-06-22T06:30:16;99281.94;;;24.95;31.56
31088;BME280;17745;55.914;37.554;2023-06-22T06:32:53;99278.75;;;25.22;30.97
31088;BME280;17745;55.914;37.554;2023-06-22T06:39:34;99280.44;;;25.78;29.68
31088;BME280;17745;55.914;37.554;2023-06-22T06:43:33;99274.22;;;26.14;29.22
31088;BME280;17745;55.914;37.554;2023-06-22T06:51:12;99276.09;;;26.29;27.92
31088;BME280;17745;55.914;37.554;2023-06-22T06:54:07;99277.19;;;26.44;27.75
31088;BME280;17745;55.914;37.554;2023-06-22T06:57:14;99280.00;;;26.71;27.60
31088;BME280;17745;55.914;37.554;2023-06-22T06:59:55;99276.13;;;26.92;26.90
31088;BME280;17745;55.914;37.554;2023-06-22T07:06:26;99263.66;;;27.10;26.94
31088;BME280;17745;55.914;37.554;2023-06-22T07:09:12;99267.81;;;27.04;26.60
31088;BME280;17745;55.914;37.554;2023-06-22T07:15:15;99264.25;;;27.00;26.59
31088;BME280;17745;55.914;37.554;2023-06-22T07:17:53;99268.94;;;27.03;26.46
31088;BME280;17745;55.914;37.554;2023-06-22T07:20:34;99273.59;;;27.26;26.10
31088;BME280;17745;55.914;37.554;2023-06-22T07:23:53;99271.22;;;27.48;26.13
31088;BME280;17745;55.914;37.554;2023-06-22T07:26:55;99268.31;;;27.60;25.57
31088;BME280;17745;55.914;37.554;2023-06-22T07:29:47;99255.53;;;27.37;25.70
31088;BME280;17745;55.914;37.554;2023-06-22T07:47:16;99256.19;;;27.31;25.54
31088;BME280;17745;55.914;37.554;2023-06-22T07:50:06;99247.75;;;27.63;25.54
31088;BME280;17745;55.914;37.554;2023-06-22T07:52:48;99258.03;;;27.50;25.14
31088;BME280;17745;55.914;37.554;2023-06-22T07:55:45;99249.16;;;27.26;25.41
31088;BME280;17745;55.914;37.554;2023-06-22T07:58:32;99258.06;;;27.03;25.75
31088;BME280;17745;55.914;37.554;2023-06-22T08:01:45;99256.25;;;27.11;25.69
31088;BME280;17745;55.914;37.554;2023-06-22T08:04:29;99253.84;;;27.29;25.52
31088;BME280;17745;55.914;37.554;2023-06-22T08:07:13;99254.03;;;27.17;25.52
31088;BME280;17745;55.914;37.554;2023-06-22T08:10:15;99248.41;;;27.29;25.65
31088;BME280;17745;55.914;37.554;2023-06-22T08:13:05;99241.78;;;27.53;25.62
31088;BME280;17745;55.914;37.554;2023-06-22T08:15:54;99243.19;;;27.44;25.53
31088;BME280;17745;55.914;37.554;2023-06-22T08:18:36;99238.78;;;27.08;25.47
31088;BME280;17745;55.914;37.554;2023-06-22T08:21:21;99240.53;;;26.77;25.77
31088;BME280;17745;55.914;37.554;2023-06-22T08:24:19;99231.28;;;26.59;25.96
31088;BME280;17745;55.914;37.554;2023-06-22T08:27:16;99225.75;;;26.51;26.17
31088;BME280;17745;55.914;37.554;2023-06-22T08:30:01;99229.13;;;26.88;26.24
31088;BME280;17745;55.914;37.554;2023-06-22T08:33:04;99245.78;;;27.09;25.95
31088;BME280;17745;55.914;37.554;2023-06-22T08:59:01;99214.13;;;26.74;26.79
31088;BME280;17745;55.914;37.554;2023-06-22T09:02:32;99205.28;;;26.34;26.36
31088;BME280;17745;55.914;37.554;2023-06-22T09:05:27;99201.00;;;26.33;26.57
31088;BME280;17745;55.914;37.554;2023-06-22T09:07:58;99188.69;;;26.39;26.64
31088;BME280;17745;55.914;37.554;2023-06-22T09:10:33;99184.47;;;26.42;26.83
31088;BME280;17745;55.914;37.554;2023-06-22T09:13:08;99189.34;;;26.33;27.01
31088;BME280;17745;55.914;37.554;2023-06-22T09:16:10;99188.59;;;26.16;26.93
31088;BME280;17745;55.914;37.554;2023-06-22T09:18:51;99189.84;;;26.38;27.02
31088;BME280;17745;55.914;37.554;2023-06-22T09:25:06;99193.97;;;26.75;26.95
31088;BME280;17745;55.914;37.554;2023-06-22T09:29:15;99197.16;;;26.81;26.86
31088;BME280;17745;55.914;37.554;2023-06-22T09:32:07;99190.94;;;26.80;26.68
31088;BME280;17745;55.914;37.554;2023-06-22T09:34:39;99178.69;;;26.67;26.89
31088;BME280;17745;55.914;37.554;2023-06-22T09:37:11;99182.16;;;26.64;26.94
31088;BME280;17745;55.914;37.554;2023-06-22T09:39:42;99180.50;;;26.59;26.87
31088;BME280;17745;55.914;37.554;2023-06-22T09:42:12;99189.41;;;26.60;26.94
31088;BME280;17745;55.914;37.554;2023-06-22T09:44:41;99193.06;;;26.67;26.99
31088;BME280;17745;55.914;37.554;2023-06-22T09:47:15;99180.75;;;26.74;26.90
31088;BME280;17745;55.914;37.554;2023-06-22T09:49:44;99181.56;;;26.97;26.91
31088;BME280;17745;55.914;37.554;2023-06-22T09:52:12;99175.63;;;27.15;26.82
31088;BME280;17745;55.914;37.554;2023-06-22T09:54:43;99181.19;;;27.26;26.82
31088;BME280;17745;55.914;37.554;2023-06-22T09:57:34;99175.12;;;27.09;26.90
31088;BME280;17745;55.914;37.554;2023-06-22T10:00:06;99178.53;;;27.03;26.96
31088;BME280;17745;55.914;37.554;2023-06-22T10:02:46;99181.00;;;26.88;27.15
31088;BME280;17745;55.914;37.554;2023-06-22T10:05:17;99170.31;;;26.99;27.30
31088;BME280;17745;55.914;37.554;2023-06-22T10:07:49;99172.84;;;27.11;27.28
31088;BME280;17745;55.914;37.554;2023-06-22T10:10:20;99171.09;;;27.00;27.54
31088;BME280;17745;55.914;37.554;2023-06-22T10:13:09;99161.00;;;26.53;28.14
31088;BME280;17745;55.914;37.554;2023-06-22T10:15:40;99168.63;;;26.91;27.88
31088;BME280;17745;55.914;37.554;2023-06-22T10:18:22;99159.75;;;27.21;27.66
31088;BME280;17745;55.914;37.554;2023-06-22T10:21:10;99153.16;;;27.49;27.33
31088;BME280;17745;55.914;37.554;2023-06-22T10:23:44;99155.37;;;27.66;26.92
31088;BME280;17745;55.914;37.554;2023-06-22T10:26:12;99139.41;;;27.65;26.63
31088;BME280;17745;55.914;37.554;2023-06-22T10:28:47;99148.66;;;27.60;26.79
31088;BME280;17745;55.914;37.554;2023-06-22T10:31:17;99132.00;;;27.62;26.91
31088;BME280;17745;55.914;37.554;2023-06-22T10:33:53;99138.03;;;27.82;26.78
31088;BME280;17745;55.914;37.554;2023-06-22T10:36:22;99143.19;;;28.25;26.31
31088;BME280;17745;55.914;37.554;2023-06-22T10:39:11;99138.53;;;28.25;26.17
31088;BME280;17745;55.914;37.554;2023-06-22T10:41:40;99133.97;;;27.99;25.93
31088;BME280;17745;55.914;37.554;2023-06-22T10:44:13;99135.72;;;27.80;26.28
31088;BME280;17745;55.914;37.554;2023-06-22T10:46:43;99129.00;;;27.74;26.50
31088;BME280;17745;55.914;37.554;2023-06-22T11:10:50;99104.06;;;33.14;21.72
31088;BME280;17745;55.914;37.554;2023-06-22T11:17:24;99093.34;;;35.29;18.83
31088;BME280;17745;55.914;37.554;2023-06-22T11:20:04;99085.06;;;34.88;18.58
31088;BME280;17745;55.914;37.554;2023-06-22T11:22:40;99085.34;;;34.94;18.63
31088;BME280;17745;55.914;37.554;2023-06-22T11:29:17;99082.47;;;36.78;17.57
31088;BME280;17745;55.914;37.554;2023-06-22T11:32:12;99066.75;;;37.47;16.56
31088;BME280;17745;55.914;37.554;2023-06-22T11:35:11;99069.81;;;36.94;16.96
31088;BME280;17745;55.914;37.554;2023-06-22T11:37:44;99073.72;;;37.90;16.54
31088;BME280;17745;55.914;37.554;2023-06-22T11:40:17;99063.78;;;38.41;16.12
31088;BME280;17745;55.914;37.554;2023-06-22T11:43:17;99048.31;;;38.44;15.82
31088;BME280;17745;55.914;37.554;2023-06-22T11:46:16;99051.84;;;38.09;15.96
31088;BME280;17745;55.914;37.554;2023-06-22T11:49:04;99055.19;;;36.51;16.48
31088;BME280;17745;55.914;37.554;2023-06-22T11:52:23;99051.25;;;36.02;16.98
31088;BME280;17745;55.914;37.554;2023-06-22T11:55:05;99045.84;;;37.20;16.05
31088;BME280;17745;55.914;37.554;2023-06-22T11:58:10;99051.34;;;37.20;15.86
31088;BME280;17745;55.914;37.554;2023-06-22T12:01:34;99031.19;;;36.34;16.68
31088;BME280;17745;55.914;37.554;2023-06-22T12:04:17;99025.87;;;35.41;17.56
31088;BME280;17745;55.914;37.554;2023-06-22T12:07:01;99037.50;;;34.91;18.19
31088;BME280;17745;55.914;37.554;2023-06-22T12:10:06;99022.75;;;36.71;17.11
31088;BME280;17745;55.914;37.554;2023-06-22T13:08:11;98971.66;;;32.44;20.32
31088;BME280;17745;55.914;37.554;2023-06-22T13:11:11;98961.81;;;32.05;20.72
31088;BME280;17745;55.914;37.554;2023-06-22T13:14:25;98967.56;;;32.21;20.65
31088;BME280;17745;55.914;37.554;2023-06-22T13:17:16;98957.03;;;34.87;18.73
31088;BME280;17745;55.914;37.554;2023-06-22T13:20:46;98960.81;;;36.89;16.99
31088;BME280;17745;55.914;37.554;2023-06-22T13:27:10;98934.00;;;38.60;15.33
31088;BME280;17745;55.914;37.554;2023-06-22T13:30:45;98936.91;;;39.70;14.63
31088;BME280;17745;55.914;37.554;2023-06-22T13:34:07;98933.06;;;40.33;14.10
31088;BME280;17745;55.914;37.554;2023-06-22T13:41:50;98934.63;;;38.42;14.65
31088;BME280;17745;55.914;37.554;2023-06-22T15:15:20;98883.09;;;37.42;15.69
31088;BME280;17745;55.914;37.554;2023-06-22T15:44:51;98895.78;;;31.50;21.26
31088;BME280;17745;55.914;37.554;2023-06-22T15:48:16;98897.97;;;31.09;21.84
31088;BME280;17745;55.914;37.554;2023-06-22T15:51:27;98894.72;;;30.51;22.65
31088;BME280;17745;55.914;37.554;2023-06-22T15:55:04;98898.31;;;30.12;23.34
31088;BME280;17745;55.914;37.554;2023-06-22T15:58:22;98906.13;;;30.06;23.50
31088;BME280;17745;55.914;37.554;2023-06-22T16:23:15;98902.50;;;29.11;25.01
31088;BME280;17745;55.914;37.554;2023-06-22T16:26:30;98896.09;;;28.60;25.59
31088;BME280;17745;55.914;37.554;2023-06-22T16:29:43;98916.03;;;28.15;26.21
31088;BME280;17745;55.914;37.554;2023-06-22T16:33:04;98916.94;;;27.78;26.71
31088;BME280;17745;55.914;37.554;2023-06-22T16:36:06;98918.47;;;27.37;27.28
31088;BME280;17745;55.914;37.554;2023-06-22T16:46:13;98917.25;;;26.36;28.75
31088;BME280;17745;55.914;37.554;2023-06-22T16:52:22;98908.75;;;25.87;29.30
31088;BME280;17745;55.914;37.554;2023-06-22T16:55:32;98904.47;;;25.63;29.88
31088;BME280;17745;55.914;37.554;2023-06-22T16:58:29;98911.41;;;25.40;29.96
31088;BME280;17745;55.914;37.554;2023-06-22T17:01:13;98913.88;;;25.26;30.49
31088;BME280;17745;55.914;37.554;2023-06-22T17:08:48;98914.94;;;25.02;30.97
31088;BME280;17745;55.914;37.554;2023-06-22T17:11:52;98907.69;;;24.86;31.04
31088;BME280;17745;55.914;37.554;2023-06-22T17:15:04;98904.44;;;24.61;31.17
31088;BME280;17745;55.914;37.554;2023-06-22T17:28:56;98919.56;;;24.10;32.05
31088;BME280;17745;55.914;37.554;2023-06-22T17:31:36;98916.03;;;23.93;32.22
31088;BME280;17745;55.914;37.554;2023-06-22T17:34:38;98909.94;;;23.80;32.34
31088;BME280;17745;55.914;37.554;2023-06-22T17:37:56;98915.78;;;23.66;32.51
31088;BME280;17745;55.914;37.554;2023-06-22T17:41:18;98917.66;;;23.50;32.88
31088;BME280;17745;55.914;37.554;2023-06-22T17:51:40;98924.72;;;22.97;33.61
31088;BME280;17745;55.914;37.554;2023-06-22T17:54:54;98934.22;;;22.79;33.96
31088;BME280;17745;55.914;37.554;2023-06-22T17:57:56;98922.81;;;22.57;34.18
31088;BME280;17745;55.914;37.554;2023-06-22T18:01:06;98935.06;;;22.42;34.26
31088;BME280;17745;55.914;37.554;2023-06-22T18:04:36;98931.22;;;22.31;34.33
31088;BME280;17745;55.914;37.554;2023-06-22T18:16:12;98932.91;;;21.98;34.95
31088;BME280;17745;55.914;37.554;2023-06-22T18:19:18;98940.50;;;21.83;35.05
31088;BME280;17745;55.914;37.554;2023-06-22T18:22:35;98932.06;;;21.73;35.24
31088;BME280;17745;55.914;37.554;2023-06-22T18:27:45;98925.97;;;21.63;35.48
31088;BME280;17745;55.914;37.554;2023-06-22T18:40:21;98905.94;;;21.39;36.06
31088;BME280;17745;55.914;37.554;2023-06-22T18:43:19;98904.91;;;21.32;36.18
31088;BME280;17745;55.914;37.554;2023-06-22T18:46:41;98902.00;;;21.37;35.77
31088;BME280;17745;55.914;37.554;2023-06-22T18:51:19;98904.69;;;21.24;36.12
31088;BME280;17745;55.914;37.554;2023-06-22T18:54:42;98909.78;;;21.17;36.21
31088;BME280;17745;55.914;37.554;2023-06-22T19:05:39;98891.25;;;21.03;36.62
31088;BME280;17745;55.914;37.554;2023-06-22T19:08:20;98896.03;;;20.97;36.68
31088;BME280;17745;55.914;37.554;2023-06-22T19:11:16;98898.78;;;20.89;36.75
31088;BME280;17745;55.914;37.554;2023-06-22T19:14:07;98893.41;;;20.89;37.03
31088;BME280;17745;55.914;37.554;2023-06-22T19:16:59;98895.78;;;20.90;36.83
31088;BME280;17745;55.914;37.554;2023-06-22T19:32:06;98882.56;;;20.76;37.28
31088;BME280;17745;55.914;37.554;2023-06-22T19:39:14;98884.66;;;20.70;37.46
31088;BME280;17745;55.914;37.554;2023-06-22T19:42:09;98882.03;;;20.62;37.41
31088;BME280;17745;55.914;37.554;2023-06-22T19:45:01;98890.09;;;20.62;37.75
31088;BME280;17745;55.914;37.554;2023-06-22T19:54:54;98874.09;;;20.44;38.05
31088;BME280;17745;55.914;37.554;2023-06-22T19:57:57;98872.66;;;20.47;38.05
31088;BME280;17745;55.914;37.554;2023-06-22T20:01:03;98871.75;;;20.42;38.09
31088;BME280;17745;55.914;37.554;2023-06-22T20:03:55;98866.69;;;20.41;38.40
31088;BME280;17745;55.914;37.554;2023-06-22T20:06:39;98850.84;;;20.39;38.32
31088;BME280;17745;55.914;37.554;2023-06-22T20:09:30;98851.66;;;20.40;38.39
31088;BME280;17745;55.914;37.554;2023-06-22T20:12:37;98855.47;;;20.39;38.34
31088;BME280;17745;55.914;37.554;2023-06-22T20:15:23;98862.09;;;20.41;38.47
31088;BME280;17745;55.914;37.554;2023-06-22T20:19:06;98855.47;;;20.39;38.53
31088;BME280;17745;55.914;37.554;2023-06-22T20:21:35;98850.75;;;20.36;38.64
31088;BME280;17745;55.914;37.554;2023-06-22T20:24:50;98860.38;;;20.37;38.63
31088;BME280;17745;55.914;37.554;2023-06-22T20:27:30;98858.81;;;20.36;38.57
31088;BME280;17745;55.914;37.554;2023-06-22T20:30:20;98840.00;;;20.36;38.69
31088;BME280;17745;55.914;37.554;2023-06-22T20:33:29;98844.25;;;20.37;38.77
31088;BME280;17745;55.914;37.554;2023-06-22T20:36:55;98840.44;;;20.38;38.69
31088;BME280;17745;55.914;37.554;2023-06-22T20:40:12;98833.16;;;20.38;38.84
31088;BME280;17745;55.914;37.554;2023-06-22T20:43:20;98824.31;;;20.38;38.84
31088;BME280;17745;55.914;37.554;2023-06-22T20:50:06;98817.81;;;20.39;39.04
31088;BME280;17745;55.914;37.554;2023-06-22T20:53:18;98813.09;;;20.36;39.07
31088;BME280;17745;55.914;37.554;2023-06-22T20:56:42;98809.16;;;20.33;39.20
31088;BME280;17745;55.914;37.554;2023-06-22T21:00:21;98806.81;;;20.32;39.30
31088;BME280;17745;55.914;37.554;2023-06-22T21:03:27;98801.75;;;20.30;39.48
31088;BME280;17745;55.914;37.554;2023-06-22T21:06:54;98800.50;;;20.27;39.40
31088;BME280;17745;55.914;37.554;2023-06-22T21:09:47;98799.06;;;20.30;39.61
31088;BME280;17745;55.914;37.554;2023-06-22T21:12:41;98788.19;;;20.26;39.58
31088;BME280;17745;55.914;37.554;2023-06-22T21:15:29;98788.63;;;20.28;39.67
31088;BME280;17745;55.914;37.554;2023-06-22T21:19:01;98785.94;;;20.28;39.65
31088;BME280;17745;55.914;37.554;2023-06-22T21:33:59;98761.28;;;20.26;39.68
31088;BME280;17745;55.914;37.554;2023-06-22T21:37:26;98768.13;;;20.24;39.71
31088;BME280;17745;55.914;37.554;2023-06-22T21:40:38;98762.94;;;20.19;39.73
31088;BME280;17745;55.914;37.554;2023-06-22T21:43:46;98764.59;;;20.11;39.89
31088;BME280;17745;55.914;37.554;2023-06-22T21:47:18;98767.13;;;20.07;39.86
31088;BME280;17745;55.914;37.554;2023-06-22T21:54:19;98754.94;;;20.10;39.89
31088;BME280;17745;55.914;37.554;2023-06-22T21:57:34;98753.03;;;20.10;39.90
31088;BME280;17745;55.914;37.554;2023-06-22T22:00:09;98747.34;;;20.12;39.86
31088;BME280;17745;55.914;37.554;2023-06-22T22:03:13;98741.84;;;20.08;39.87
31088;BME280;17745;55.914;37.554;2023-06-22T22:05:54;98752.25;;;20.10;39.92
31088;BME280;17745;55.914;37.554;2023-06-22T22:09:04;98739.16;;;20.08;39.94
31088;BME280;17745;55.914;37.554;2023-06-22T22:20:22;98726.38;;;20.05;40.15
31088;BME280;17745;55.914;37.554;2023-06-22T22:23:48;98718.19;;;20.02;40.21
31088;BME280;17745;55.914;37.554;2023-06-22T22:27:16;98713.31;;;19.95;40.25
31088;BME280;17745;55.914;37.554;2023-06-22T22:34:27;98709.09;;;19.85;40.49
31088;BME280;17745;55.914;37.554;2023-06-22T22:48:39;98695.06;;;19.58;40.97
31088;BME280;17745;55.914;37.554;2023-06-22T22:51:49;98716.38;;;19.54;41.03
31088;BME280;17745;55.914;37.554;2023-06-22T22:55:06;98720.06;;;19.50;41.06
31088;BME280;17745;55.914;37.554;2023-06-22T22:58:20;98713.56;;;19.51;41.04
31088;BME280;17745;55.914;37.554;2023-06-22T23:01:30;98708.84;;;19.48;41.21
31088;BME280;17745;55.914;37.554;2023-06-22T23:18:51;98684.19;;;19.24;41.67
31088;BME280;17745;55.914;37.554;2023-06-22T23:21:56;98671.25;;;19.18;41.82
31088;BME280;17745;55.914;37.554;2023-06-22T23:25:04;98673.97;;;19.09;41.84
31088;BME280;17745;55.914;37.554;2023-06-22T23:28:12;98673.97;;;19.09;42.06
31088;BME280;17745;55.914;37.554;2023-06-22T23:31:08;98682.50;;;19.11;41.89
31088;BME280;17745;55.914;37.554;2023-06-22T23:34:18;98692.09;;;19.12;41.92
31088;BME280;17745;55.914;37.554;2023-06-22T23:37:25;98684.69;;;19.18;42.07
31088;BME280;17745;55.914;37.554;2023-06-22T23:40:08;98684.03;;;19.21;41.99
31088;BME280;17745;55.914;37.554;2023-06-22T23:43:07;98688.75;;;19.24;41.93
31088;BME280;17745;55.914;37.554;2023-06-22T23:46:57;98678.47;;;19.26;41.97
31088;BME280;17745;55.914;37.554;2023-06-22T23:52:49;98679.28;;;19.26;42.01
31088;BME280;17745;55.914;37.554;2023-06-22T23:55:50;98679.28;;;19.26;41.87
31088;BME280;17745;55.914;37.554;2023-06-22T23:59:01;98676.59;;;19.26;42.02
